createdAt,value
2018-03-20T00:00:36.941Z,-2.75
2018-03-20T00:01:36.912Z,-2.82
2018-03-20T00:02:36.892Z,-2.90
2018-03-20T00:03:36.884Z,-2.93
2018-03-20T00:04:36.845Z,-2.87
2018-03-20T00:05:36.852Z,-2.87
2018-03-20T00:06:36.804Z,-2.92
2018-03-20T00:07:36.767Z,-2.85
2018-03-20T00:08:36.752Z,-2.71
2018-03-20T00:09:36.732Z,-2.75
2018-03-20T00:10:36.713Z,-2.75
2018-03-20T00:11:36.731Z,-2.76
2018-03-20T00:12:36.666Z,-2.66
2018-03-20T00:13:36.675Z,-2.58
2018-03-20T00:14:36.617Z,-2.60
2018-03-20T00:15:36.597Z,-2.64
2018-03-20T00:16:36.588Z,-2.61
2018-03-20T00:17:36.542Z,-2.61
2018-03-20T00:18:36.525Z,-2.58
2018-03-20T00:19:36.507Z,-2.50
2018-03-20T00:20:36.492Z,-2.57
2018-03-20T00:21:36.467Z,-2.51
2018-03-20T00:22:36.434Z,-2.48
2018-03-20T00:23:36.408Z,-2.54
2018-03-20T00:24:36.386Z,-2.68
2018-03-20T00:25:36.367Z,-2.64
2018-03-20T00:26:36.341Z,-2.66
2018-03-20T00:27:36.328Z,-2.57
2018-03-20T00:28:36.296Z,-2.64
2018-03-20T00:29:36.277Z,-2.61
2018-03-20T00:30:36.245Z,-2.61
2018-03-20T00:31:36.232Z,-2.66
2018-03-20T00:32:36.195Z,-2.68
2018-03-20T00:33:36.173Z,-2.61
2018-03-20T00:34:36.156Z,-2.66
2018-03-20T00:35:36.165Z,-2.63
2018-03-20T00:36:36.118Z,-2.68
2018-03-20T00:37:36.086Z,-2.61
2018-03-20T00:38:36.066Z,-2.78
2018-03-20T00:39:36.073Z,-2.79
2018-03-20T00:40:36.019Z,-2.75
2018-03-20T00:41:36.018Z,-2.82
2018-03-20T00:42:35.977Z,-2.72
2018-03-20T00:43:35.955Z,-2.76
2018-03-20T00:44:35.923Z,-2.75
2018-03-20T00:45:35.897Z,-2.82
2018-03-20T00:46:35.871Z,-2.86
2018-03-20T00:47:35.862Z,-2.76
2018-03-20T00:48:35.824Z,-2.81
2018-03-20T00:49:35.828Z,-2.79
2018-03-20T00:50:35.776Z,-2.78
2018-03-20T00:51:35.792Z,-2.93
2018-03-20T00:52:35.732Z,-2.94
2018-03-20T00:53:35.732Z,-2.92
2018-03-20T00:54:35.697Z,-2.89
2018-03-20T00:55:35.700Z,-2.92
2018-03-20T00:56:35.636Z,-2.99
2018-03-20T00:57:35.616Z,-2.99
2018-03-20T00:58:35.589Z,-3.04
2018-03-20T00:59:35.575Z,-3.00
2018-03-20T01:00:35.555Z,-3.08
2018-03-20T01:01:35.518Z,-3.13
2018-03-20T01:02:35.503Z,-3.18
2018-03-20T01:03:35.484Z,-3.13
2018-03-20T01:04:35.462Z,-3.33
2018-03-20T01:05:35.426Z,-3.29
2018-03-20T01:06:35.407Z,-3.36
2018-03-20T01:07:35.383Z,-3.26
2018-03-20T01:08:35.364Z,-3.43
2018-03-20T01:09:35.345Z,-3.39
2018-03-20T01:10:35.315Z,-3.43
2018-03-20T01:11:35.299Z,-3.43
2018-03-20T01:12:35.280Z,-3.49
2018-03-20T01:13:35.268Z,-3.43
2018-03-20T01:14:35.226Z,-3.41
2018-03-20T01:15:35.226Z,-3.44
2018-03-20T01:16:35.168Z,-3.41
2018-03-20T01:17:35.165Z,-3.35
2018-03-20T01:18:35.148Z,-3.39
2018-03-20T01:19:35.122Z,-3.38
2018-03-20T01:20:35.071Z,-3.41
2018-03-20T01:21:35.065Z,-3.43
2018-03-20T01:22:35.068Z,-3.44
2018-03-20T01:23:35.021Z,-3.41
2018-03-20T01:24:34.990Z,-3.44
2018-03-20T01:25:34.965Z,-3.51
2018-03-20T01:26:35.344Z,-3.43
2018-03-20T01:27:34.913Z,-3.50
2018-03-20T01:28:34.903Z,-3.44
2018-03-20T01:29:34.888Z,-3.26
2018-03-20T01:30:34.843Z,-3.26
2018-03-20T01:31:34.837Z,-3.28
2018-03-20T01:32:34.797Z,-3.33
2018-03-20T01:33:34.782Z,-3.25
2018-03-20T01:34:34.750Z,-3.26
2018-03-20T01:35:34.756Z,-3.28
2018-03-20T01:36:34.715Z,-3.33
2018-03-20T01:37:34.686Z,-3.29
2018-03-20T01:38:34.661Z,-3.25
2018-03-20T01:39:34.645Z,-3.25
2018-03-20T01:40:34.609Z,-3.31
2018-03-20T01:41:34.590Z,-3.32
2018-03-20T01:42:34.566Z,-3.33
2018-03-20T01:43:34.542Z,-3.39
2018-03-20T01:44:34.526Z,-3.36
2018-03-20T01:45:34.507Z,-3.39
2018-03-20T01:46:34.491Z,-3.28
2018-03-20T01:47:34.448Z,-3.28
2018-03-20T01:48:34.430Z,-3.41
2018-03-20T01:49:34.401Z,-3.36
2018-03-20T01:50:34.368Z,-3.47
2018-03-20T01:51:34.356Z,-3.43
2018-03-20T01:52:34.332Z,-3.35
2018-03-20T01:53:34.318Z,-3.25
2018-03-20T01:54:34.275Z,-3.31
2018-03-20T01:55:34.269Z,-3.39
2018-03-20T01:56:34.250Z,-3.33
2018-03-20T01:57:34.218Z,-3.50
2018-03-20T01:58:34.194Z,-3.49
2018-03-20T01:59:34.175Z,-3.53
2018-03-20T02:00:34.146Z,-3.60
2018-03-20T02:01:34.120Z,-3.56
2018-03-20T02:02:34.104Z,-3.62
2018-03-20T02:03:34.078Z,-3.61
2018-03-20T02:04:34.040Z,-3.61
2018-03-20T02:05:34.031Z,-3.50
2018-03-20T02:06:34.003Z,-3.67
2018-03-20T02:07:33.986Z,-3.57
2018-03-20T02:08:33.958Z,-3.71
2018-03-20T02:09:33.947Z,-3.70
2018-03-20T02:10:33.906Z,-3.76
2018-03-20T02:11:33.912Z,-3.80
2018-03-20T02:12:33.863Z,-3.68
2018-03-20T02:13:33.867Z,-3.68
2018-03-20T02:14:33.836Z,-3.70
2018-03-20T02:15:33.806Z,-3.80
2018-03-20T02:16:33.775Z,-3.70
2018-03-20T02:17:33.739Z,-3.71
2018-03-20T02:18:33.731Z,-3.80
2018-03-20T02:19:33.727Z,-3.76
2018-03-20T02:20:33.669Z,-3.68
2018-03-20T02:21:33.644Z,-3.86
2018-03-20T02:22:33.629Z,-3.80
2018-03-20T02:23:33.605Z,-3.83
2018-03-20T02:24:33.584Z,-3.83
2018-03-20T02:25:33.552Z,-3.89
2018-03-20T02:26:33.523Z,-3.84
2018-03-20T02:27:33.511Z,-3.81
2018-03-20T02:28:33.481Z,-3.91
2018-03-20T02:29:33.455Z,-3.93
2018-03-20T02:30:33.441Z,-3.80
2018-03-20T02:31:33.421Z,-3.91
2018-03-20T02:32:33.381Z,-4.01
2018-03-20T02:33:33.377Z,-4.02
2018-03-20T02:34:33.341Z,-4.01
2018-03-20T02:35:33.326Z,-4.02
2018-03-20T02:36:33.297Z,-4.01
2018-03-20T02:37:33.273Z,-3.98
2018-03-20T02:38:33.244Z,-4.02
2018-03-20T02:39:33.222Z,-3.98
2018-03-20T02:40:33.205Z,-3.98
2018-03-20T02:41:33.177Z,-4.05
2018-03-20T02:42:33.148Z,-4.11
2018-03-20T02:43:33.149Z,-4.23
2018-03-20T02:44:33.102Z,-4.29
2018-03-20T02:45:33.078Z,-4.29
2018-03-20T02:46:33.059Z,-4.29
2018-03-20T02:47:33.031Z,-4.25
2018-03-20T02:48:33.008Z,-4.30
2018-03-20T02:49:32.993Z,-4.36
2018-03-20T02:50:32.958Z,-4.44
2018-03-20T02:51:32.942Z,-4.43
2018-03-20T02:52:32.911Z,-4.44
2018-03-20T02:53:32.888Z,-4.47
2018-03-20T02:54:32.871Z,-4.36
2018-03-20T02:55:32.864Z,-4.29
2018-03-20T02:56:32.817Z,-4.28
2018-03-20T02:57:32.796Z,-4.15
2018-03-20T02:58:32.762Z,-4.26
2018-03-20T02:59:32.752Z,-4.22
2018-03-20T03:00:32.730Z,-4.30
2018-03-20T03:01:32.702Z,-4.33
2018-03-20T03:02:32.672Z,-4.40
2018-03-20T03:03:32.654Z,-4.38
2018-03-20T03:04:32.638Z,-4.36
2018-03-20T03:05:32.600Z,-4.37
2018-03-20T03:06:32.584Z,-4.32
2018-03-20T03:07:32.556Z,-4.36
2018-03-20T03:08:32.534Z,-4.33
2018-03-20T03:09:32.498Z,-4.32
2018-03-20T03:10:32.479Z,-4.32
2018-03-20T03:11:32.472Z,-4.41
2018-03-20T03:12:32.472Z,-4.46
2018-03-20T03:13:32.431Z,-4.46
2018-03-20T03:14:32.389Z,-4.50
2018-03-20T03:15:32.366Z,-4.48
2018-03-20T03:16:32.347Z,-4.55
2018-03-20T03:17:32.314Z,-4.43
2018-03-20T03:18:32.287Z,-4.46
2018-03-20T03:19:32.303Z,-4.48
2018-03-20T03:20:32.255Z,-4.51
2018-03-20T03:21:32.229Z,-4.50
2018-03-20T03:22:32.200Z,-4.51
2018-03-20T03:23:32.174Z,-4.55
2018-03-20T03:24:32.158Z,-4.59
2018-03-20T03:25:32.123Z,-4.69
2018-03-20T03:26:32.104Z,-4.68
2018-03-20T03:27:32.068Z,-4.62
2018-03-20T03:28:32.057Z,-4.71
2018-03-20T03:29:32.033Z,-4.65
2018-03-20T03:30:32.019Z,-4.66
2018-03-20T03:31:31.985Z,-4.64
2018-03-20T03:32:31.982Z,-4.73
2018-03-20T03:33:31.931Z,-4.65
2018-03-20T03:34:31.930Z,-4.65
2018-03-20T03:35:31.879Z,-4.73
2018-03-20T03:36:31.863Z,-4.71
2018-03-20T03:37:31.834Z,-4.75
2018-03-20T03:38:31.818Z,-4.77
2018-03-20T03:39:31.788Z,-4.64
2018-03-20T03:40:31.775Z,-4.68
2018-03-20T03:41:31.740Z,-4.68
2018-03-20T03:42:31.721Z,-4.82
2018-03-20T03:43:31.692Z,-4.83
2018-03-20T03:44:31.667Z,-4.87
2018-03-20T03:45:31.641Z,-4.73
2018-03-20T03:46:31.620Z,-4.85
2018-03-20T03:47:31.589Z,-4.89
2018-03-20T03:48:31.564Z,-4.89
2018-03-20T03:49:31.601Z,-4.98
2018-03-20T03:50:31.516Z,-4.94
2018-03-20T03:51:31.500Z,-4.87
2018-03-20T03:52:31.468Z,-4.94
2018-03-20T03:53:31.456Z,-5.00
2018-03-20T03:54:31.433Z,-4.98
2018-03-20T03:55:31.401Z,-4.98
2018-03-20T03:56:31.373Z,-4.94
2018-03-20T03:57:31.360Z,-5.08
2018-03-20T03:58:31.329Z,-5.01
2018-03-20T03:59:31.302Z,-5.07
2018-03-20T04:00:31.275Z,-5.00
2018-03-20T04:01:31.251Z,-4.98
2018-03-20T04:02:31.228Z,-5.20
2018-03-20T04:03:31.206Z,-5.07
2018-03-20T04:04:31.185Z,-5.12
2018-03-20T04:05:31.159Z,-5.19
2018-03-20T04:06:31.133Z,-5.27
2018-03-20T04:07:31.107Z,-5.05
2018-03-20T04:08:31.085Z,-5.16
2018-03-20T04:09:31.060Z,-5.05
2018-03-20T04:10:31.037Z,-5.01
2018-03-20T04:11:31.012Z,-5.11
2018-03-20T04:12:30.993Z,-5.14
2018-03-20T04:13:30.971Z,-5.16
2018-03-20T04:14:30.965Z,-5.05
2018-03-20T04:15:30.923Z,-5.05
2018-03-20T04:16:30.897Z,-5.08
2018-03-20T04:17:30.878Z,-5.04
2018-03-20T04:18:30.845Z,-5.19
2018-03-20T04:19:30.817Z,-5.17
2018-03-20T04:20:30.797Z,-5.19
2018-03-20T04:21:30.765Z,-5.22
2018-03-20T04:22:30.750Z,-5.20
2018-03-20T04:23:30.717Z,-5.37
2018-03-20T04:24:30.698Z,-5.37
2018-03-20T04:25:30.678Z,-5.37
2018-03-20T04:26:30.651Z,-5.38
2018-03-20T04:27:30.629Z,-5.34
2018-03-20T04:28:30.600Z,-5.33
2018-03-20T04:29:30.583Z,-5.31
2018-03-20T04:30:30.565Z,-5.30
2018-03-20T04:31:30.522Z,-5.25
2018-03-20T04:32:30.506Z,-5.40
2018-03-20T04:33:30.478Z,-5.35
2018-03-20T04:34:30.452Z,-5.25
2018-03-20T04:35:30.443Z,-5.38
2018-03-20T04:36:30.430Z,-5.38
2018-03-20T04:37:30.378Z,-5.52
2018-03-20T04:38:30.356Z,-5.49
2018-03-20T04:39:30.340Z,-5.47
2018-03-20T04:40:30.308Z,-5.44
2018-03-20T04:41:30.285Z,-5.51
2018-03-20T04:42:30.260Z,-5.37
2018-03-20T04:43:30.241Z,-5.40
2018-03-20T04:44:30.205Z,-5.52
2018-03-20T04:45:30.194Z,-5.55
2018-03-20T04:46:30.159Z,-5.59
2018-03-20T04:47:30.133Z,-5.51
2018-03-20T04:48:30.108Z,-5.55
2018-03-20T04:49:30.095Z,-5.55
2018-03-20T04:50:30.069Z,-5.45
2018-03-20T04:51:30.048Z,-5.43
2018-03-20T04:52:30.020Z,-5.47
2018-03-20T04:53:29.996Z,-5.52
2018-03-20T04:54:29.964Z,-5.62
2018-03-20T04:55:29.945Z,-5.58
2018-03-20T04:56:29.922Z,-5.55
2018-03-20T04:57:29.899Z,-5.58
2018-03-20T04:58:29.865Z,-5.65
2018-03-20T04:59:29.852Z,-5.79
2018-03-20T05:00:29.842Z,-5.65
2018-03-20T05:01:29.797Z,-5.70
2018-03-20T05:02:29.771Z,-5.70
2018-03-20T05:03:29.747Z,-5.73
2018-03-20T05:04:29.752Z,-5.76
2018-03-20T05:05:29.695Z,-5.73
2018-03-20T05:06:29.675Z,-5.80
2018-03-20T05:07:29.647Z,-5.77
2018-03-20T05:08:29.615Z,-5.83
2018-03-20T05:09:29.595Z,-5.70
2018-03-20T05:10:29.585Z,-5.70
2018-03-20T05:11:29.553Z,-5.72
2018-03-20T05:12:29.530Z,-5.65
2018-03-20T05:13:29.502Z,-5.65
2018-03-20T05:14:29.473Z,-5.70
2018-03-20T05:15:29.445Z,-5.69
2018-03-20T05:16:29.428Z,-5.73
2018-03-20T05:17:29.406Z,-5.84
2018-03-20T05:18:29.386Z,-5.63
2018-03-20T05:19:29.369Z,-5.65
2018-03-20T05:20:29.331Z,-5.69
2018-03-20T05:21:29.340Z,-5.77
2018-03-20T05:22:29.292Z,-5.80
2018-03-20T05:23:29.267Z,-5.72
2018-03-20T05:24:29.237Z,-5.87
2018-03-20T05:25:29.216Z,-5.80
2018-03-20T05:26:29.244Z,-5.79
2018-03-20T05:27:29.167Z,-5.80
2018-03-20T05:28:29.142Z,-5.63
2018-03-20T05:29:29.113Z,-5.76
2018-03-20T05:30:29.104Z,-5.72
2018-03-20T05:31:29.072Z,-5.65
2018-03-20T05:32:29.037Z,-5.73
2018-03-20T05:33:29.014Z,-5.79
2018-03-20T05:34:29.013Z,-5.73
2018-03-20T05:35:28.976Z,-5.74
2018-03-20T05:36:28.944Z,-5.77
2018-03-20T05:37:28.929Z,-5.72
2018-03-20T05:38:28.929Z,-5.90
2018-03-20T05:39:28.872Z,-5.77
2018-03-20T05:40:28.846Z,-5.79
2018-03-20T05:41:28.820Z,-5.79
2018-03-20T05:42:28.816Z,-5.88
2018-03-20T05:43:28.791Z,-5.73
2018-03-20T05:44:28.747Z,-5.77
2018-03-20T05:45:28.714Z,-5.69
2018-03-20T05:46:28.712Z,-5.80
2018-03-20T05:47:28.672Z,-5.77
2018-03-20T05:48:28.641Z,-5.70
2018-03-20T05:49:28.641Z,-5.87
2018-03-20T05:50:28.600Z,-5.70
2018-03-20T05:51:28.571Z,-5.70
2018-03-20T05:52:28.549Z,-5.72
2018-03-20T05:53:28.542Z,-5.70
2018-03-20T05:54:28.518Z,-5.74
2018-03-20T05:55:28.475Z,-5.79
2018-03-20T05:56:28.472Z,-5.80
2018-03-20T05:57:28.422Z,-5.82
2018-03-20T05:58:28.420Z,-5.76
2018-03-20T05:59:28.378Z,-5.69
2018-03-20T06:00:28.369Z,-5.63
2018-03-20T06:01:28.324Z,-5.52
2018-03-20T06:02:28.320Z,-5.52
2018-03-20T06:03:28.282Z,-5.45
2018-03-20T06:04:28.250Z,-5.52
2018-03-20T06:05:28.234Z,-5.47
2018-03-20T06:06:28.241Z,-5.52
2018-03-20T06:07:28.184Z,-5.55
2018-03-20T06:08:28.155Z,-5.49
2018-03-20T06:09:28.139Z,-5.51
2018-03-20T06:10:28.104Z,-5.49
2018-03-20T06:11:28.078Z,-5.40
2018-03-20T06:12:28.072Z,-5.35
2018-03-20T06:13:28.059Z,-5.47
2018-03-20T06:14:28.024Z,-5.40
2018-03-20T06:15:27.984Z,-5.51
2018-03-20T06:16:27.959Z,-5.47
2018-03-20T06:17:27.940Z,-5.41
2018-03-20T06:18:27.911Z,-5.37
2018-03-20T06:19:27.895Z,-5.40
2018-03-20T06:20:27.871Z,-5.51
2018-03-20T06:21:27.856Z,-5.51
2018-03-20T06:22:27.807Z,-5.54
2018-03-20T06:23:27.806Z,-5.43
2018-03-20T06:24:27.762Z,-5.40
2018-03-20T06:25:27.743Z,-5.26
2018-03-20T06:26:27.781Z,-5.25
2018-03-20T06:27:27.699Z,-5.20
2018-03-20T06:28:27.675Z,-5.26
2018-03-20T06:29:27.647Z,-5.12
2018-03-20T06:30:27.622Z,-5.22
2018-03-20T06:31:27.593Z,-5.16
2018-03-20T06:32:27.574Z,-5.19
2018-03-20T06:33:27.545Z,-5.12
2018-03-20T06:34:27.523Z,-5.16
2018-03-20T06:35:27.508Z,-5.05
2018-03-20T06:36:27.487Z,-4.98
2018-03-20T06:37:27.456Z,-4.95
2018-03-20T06:38:27.427Z,-4.91
2018-03-20T06:39:27.407Z,-4.94
2018-03-20T06:40:27.385Z,-4.94
2018-03-20T06:41:27.359Z,-4.97
2018-03-20T06:42:27.333Z,-4.97
2018-03-20T06:43:27.333Z,-4.87
2018-03-20T06:44:27.286Z,-4.85
2018-03-20T06:45:27.278Z,-4.80
2018-03-20T06:46:27.256Z,-4.86
2018-03-20T06:47:27.211Z,-4.91
2018-03-20T06:48:27.215Z,-4.69
2018-03-20T06:49:27.194Z,-4.77
2018-03-20T06:50:27.138Z,-4.66
2018-03-20T06:51:27.118Z,-4.68
2018-03-20T06:52:27.089Z,-4.85
2018-03-20T06:53:27.092Z,-4.73
2018-03-20T06:54:27.047Z,-4.83
2018-03-20T06:55:27.032Z,-4.75
2018-03-20T06:56:27.015Z,-4.80
2018-03-20T06:57:26.992Z,-4.68
2018-03-20T06:58:26.949Z,-4.58
2018-03-20T06:59:26.990Z,-4.62
2018-03-20T07:00:26.898Z,-4.61
2018-03-20T07:01:26.873Z,-4.51
2018-03-20T07:02:26.849Z,-4.43
2018-03-20T07:03:26.828Z,-4.57
2018-03-20T07:04:26.834Z,-4.44
2018-03-20T07:05:26.781Z,-4.37
2018-03-20T07:06:26.775Z,-4.37
2018-03-20T07:07:26.767Z,-4.28
2018-03-20T07:08:26.723Z,-4.28
2018-03-20T07:09:26.692Z,-4.15
2018-03-20T07:10:26.666Z,-4.18
2018-03-20T07:11:26.656Z,-4.15
2018-03-20T07:12:26.615Z,-4.19
2018-03-20T07:13:26.605Z,-4.12
2018-03-20T07:14:26.558Z,-4.07
2018-03-20T07:15:26.538Z,-4.12
2018-03-20T07:16:26.554Z,-3.90
2018-03-20T07:17:26.496Z,-3.84
2018-03-20T07:18:26.471Z,-3.75
2018-03-20T07:19:26.449Z,-3.65
2018-03-20T07:20:26.429Z,-3.54
2018-03-20T07:21:26.407Z,-3.44
2018-03-20T07:22:26.386Z,-3.26
2018-03-20T07:23:26.376Z,-3.25
2018-03-20T07:24:26.341Z,-3.14
2018-03-20T07:25:26.308Z,-3.04
2018-03-20T07:26:26.299Z,-3.07
2018-03-20T07:27:26.312Z,-2.96
2018-03-20T07:28:26.280Z,-2.97
2018-03-20T07:29:26.230Z,-2.99
2018-03-20T07:30:26.194Z,-3.04
2018-03-20T07:31:26.175Z,-3.02
2018-03-20T07:32:26.142Z,-2.87
2018-03-20T07:33:26.140Z,-2.90
2018-03-20T07:34:26.173Z,-2.81
2018-03-20T07:35:26.082Z,-2.64
2018-03-20T07:36:26.057Z,-2.61
2018-03-20T07:37:26.031Z,-2.51
2018-03-20T07:38:26.016Z,-2.23
2018-03-20T07:39:25.995Z,-2.14
2018-03-20T07:40:25.970Z,-2.05
2018-03-20T07:41:25.950Z,-1.87
2018-03-20T07:42:25.914Z,-1.78
2018-03-20T07:43:25.898Z,-1.54
2018-03-20T07:44:25.889Z,-1.54
2018-03-20T07:45:25.848Z,-1.56
2018-03-20T07:46:25.854Z,-1.51
2018-03-20T07:47:25.819Z,-1.46
2018-03-20T07:48:25.791Z,-1.31
2018-03-20T07:49:25.803Z,-1.28
2018-03-20T07:50:25.744Z,-1.24
2018-03-20T07:51:25.723Z,-1.13
2018-03-20T07:52:25.740Z,-1.13
2018-03-20T07:53:25.705Z,-1.10
2018-03-20T07:54:25.656Z,-1.02
2018-03-20T07:55:25.653Z,-0.87
2018-03-20T07:56:25.641Z,-0.73
2018-03-20T07:57:25.586Z,-0.57
2018-03-20T07:58:25.595Z,-0.63
2018-03-20T07:59:25.543Z,-0.66
2018-03-20T08:00:25.521Z,-0.55
2018-03-20T08:01:25.521Z,-0.55
2018-03-20T08:02:25.496Z,-0.60
2018-03-20T08:03:25.470Z,-0.69
2018-03-20T08:04:25.470Z,-0.60
2018-03-20T08:05:25.416Z,-0.63
2018-03-20T08:06:25.417Z,-0.63
2018-03-20T08:07:25.382Z,-0.41
2018-03-20T08:08:25.361Z,-0.31
2018-03-20T08:09:25.340Z,-0.12
2018-03-20T08:10:25.302Z,-0.11
2018-03-20T08:11:25.293Z,-0.04
2018-03-20T08:12:25.265Z,0.07
2018-03-20T08:13:25.242Z,0.03
2018-03-20T08:14:25.243Z,0.09
2018-03-20T08:15:25.203Z,0.12
2018-03-20T08:16:25.190Z,0.12
2018-03-20T08:17:25.174Z,0.28
2018-03-20T08:18:25.152Z,0.21
2018-03-20T08:19:25.218Z,0.25
2018-03-20T08:20:25.119Z,0.24
2018-03-20T08:21:25.069Z,0.28
2018-03-20T08:22:25.075Z,0.39
2018-03-20T08:23:25.036Z,0.38
2018-03-20T08:24:25.027Z,0.28
2018-03-20T08:25:25.014Z,0.36
2018-03-20T08:26:24.970Z,0.51
2018-03-20T08:27:24.971Z,0.65
2018-03-20T08:28:24.956Z,0.62
2018-03-20T08:29:24.931Z,0.52
2018-03-20T08:30:24.908Z,0.51
2018-03-20T08:31:24.883Z,0.39
2018-03-20T08:32:24.848Z,0.64
2018-03-20T08:33:24.832Z,0.64
2018-03-20T08:34:24.813Z,0.64
2018-03-20T08:35:24.809Z,0.41
2018-03-20T08:36:24.773Z,0.43
2018-03-20T08:37:24.754Z,0.43
2018-03-20T08:38:24.725Z,0.43
2018-03-20T08:39:24.699Z,0.61
2018-03-20T08:40:24.684Z,0.60
2018-03-20T08:41:24.658Z,0.62
2018-03-20T08:42:24.642Z,0.79
2018-03-20T08:43:24.623Z,0.68
2018-03-20T08:44:24.663Z,0.67
2018-03-20T08:45:24.604Z,0.70
2018-03-20T08:46:24.564Z,0.72
2018-03-20T08:47:24.545Z,0.67
2018-03-20T08:48:24.526Z,0.60
2018-03-20T08:49:24.525Z,0.58
2018-03-20T08:50:24.484Z,0.58
2018-03-20T08:51:24.468Z,0.60
2018-03-20T08:52:24.458Z,0.57
2018-03-20T08:53:24.413Z,0.61
2018-03-20T08:54:24.413Z,0.61
2018-03-20T08:55:24.394Z,0.72
2018-03-20T08:56:24.363Z,0.79
2018-03-20T08:57:24.353Z,0.83
2018-03-20T08:58:24.314Z,0.78
2018-03-20T08:59:24.309Z,0.89
2018-03-20T09:00:24.270Z,0.72
2018-03-20T09:01:24.257Z,0.80
2018-03-20T09:02:24.250Z,0.67
2018-03-20T09:03:24.215Z,0.65
2018-03-20T09:04:24.222Z,0.70
2018-03-20T09:05:24.190Z,0.64
2018-03-20T09:06:24.192Z,0.71
2018-03-20T09:07:24.142Z,0.48
2018-03-20T09:08:24.106Z,0.34
2018-03-20T09:09:24.148Z,0.34
2018-03-20T09:10:24.068Z,0.28
2018-03-20T09:11:24.040Z,0.30
2018-03-20T09:12:24.104Z,0.25
2018-03-20T09:13:24.002Z,0.23
2018-03-20T09:14:23.980Z,0.36
2018-03-20T09:15:23.976Z,0.36
2018-03-20T09:16:23.941Z,0.36
2018-03-20T09:17:23.917Z,0.46
2018-03-20T09:18:23.900Z,0.60
2018-03-20T09:19:23.880Z,0.46
2018-03-20T09:20:23.861Z,0.42
2018-03-20T09:21:23.842Z,0.42
2018-03-20T09:22:23.806Z,0.43
2018-03-20T09:23:23.792Z,0.57
2018-03-20T09:24:23.763Z,0.64
2018-03-20T09:25:23.772Z,0.70
2018-03-20T09:26:23.747Z,0.70
2018-03-20T09:27:23.711Z,0.83
2018-03-20T09:28:23.682Z,0.90
2018-03-20T09:29:23.665Z,0.96
2018-03-20T09:30:23.647Z,0.90
2018-03-20T09:31:23.622Z,0.94
2018-03-20T09:32:23.625Z,1.01
2018-03-20T09:33:23.586Z,1.10
2018-03-20T09:34:23.571Z,1.10
2018-03-20T09:35:23.537Z,1.03
2018-03-20T09:36:23.518Z,1.04
2018-03-20T09:37:23.490Z,1.04
2018-03-20T09:38:23.477Z,0.88
2018-03-20T09:39:23.461Z,0.80
2018-03-20T09:40:23.463Z,0.70
2018-03-20T09:41:23.429Z,0.72
2018-03-20T09:42:23.403Z,0.71
2018-03-20T09:43:23.439Z,0.76
2018-03-20T09:44:23.353Z,0.71
2018-03-20T09:45:23.334Z,0.61
2018-03-20T09:46:23.321Z,0.68
2018-03-20T09:47:23.295Z,0.62
2018-03-20T09:48:23.289Z,0.46
2018-03-20T09:49:23.270Z,0.41
2018-03-20T09:50:23.219Z,0.36
2018-03-20T09:51:23.199Z,0.34
2018-03-20T09:52:23.182Z,0.31
2018-03-20T09:53:23.153Z,0.02
2018-03-20T09:54:23.163Z,-0.15
2018-03-20T09:55:23.116Z,-0.27
2018-03-20T09:56:23.106Z,-0.11
2018-03-20T09:57:23.078Z,-0.15
2018-03-20T09:58:23.057Z,-0.06
2018-03-20T09:59:23.054Z,0.00
2018-03-20T10:00:23.037Z,0.10
2018-03-20T10:01:23.016Z,0.13
2018-03-20T10:02:22.970Z,0.27
2018-03-20T10:03:22.951Z,0.12
2018-03-20T10:04:22.925Z,0.00
2018-03-20T10:05:22.912Z,-0.08
2018-03-20T10:06:22.884Z,0.05
2018-03-20T10:07:22.868Z,0.12
2018-03-20T10:08:22.864Z,0.10
2018-03-20T10:09:22.829Z,0.20
2018-03-20T10:10:22.800Z,0.24
2018-03-20T10:11:22.784Z,0.10
2018-03-20T10:12:22.752Z,0.05
2018-03-20T10:13:22.755Z,-0.05
2018-03-20T10:14:22.720Z,-0.15
2018-03-20T10:15:22.692Z,-0.29
2018-03-20T10:16:22.701Z,-0.30
2018-03-20T10:17:22.669Z,-0.22
2018-03-20T10:18:22.628Z,-0.19
2018-03-20T10:19:22.612Z,-0.13
2018-03-20T10:20:22.604Z,-0.08
2018-03-20T10:21:22.556Z,0.03
2018-03-20T10:22:22.538Z,0.10
2018-03-20T10:23:22.547Z,0.27
2018-03-20T10:24:22.506Z,0.13
2018-03-20T10:25:22.500Z,0.06
2018-03-20T10:26:22.454Z,0.23
2018-03-20T10:27:22.445Z,0.25
2018-03-20T10:28:22.419Z,0.45
2018-03-20T10:29:22.390Z,0.46
2018-03-20T10:30:22.407Z,0.61
2018-03-20T10:31:22.367Z,0.76
2018-03-20T10:32:22.348Z,0.75
2018-03-20T10:33:22.329Z,0.83
2018-03-20T10:34:22.284Z,0.92
2018-03-20T10:35:22.269Z,1.21
2018-03-20T10:36:22.247Z,1.29
2018-03-20T10:37:22.227Z,1.29
2018-03-20T10:38:22.209Z,1.28
2018-03-20T10:39:22.183Z,1.22
2018-03-20T10:40:22.169Z,1.04
2018-03-20T10:41:22.139Z,0.90
2018-03-20T10:42:22.120Z,0.85
2018-03-20T10:43:22.103Z,0.75
2018-03-20T10:44:22.113Z,0.65
2018-03-20T10:45:22.055Z,0.72
2018-03-20T10:46:22.045Z,0.82
2018-03-20T10:47:22.023Z,0.72
2018-03-20T10:48:21.992Z,0.68
2018-03-20T10:49:21.969Z,0.72
2018-03-20T10:50:21.947Z,0.60
2018-03-20T10:51:21.946Z,0.46
2018-03-20T10:52:21.908Z,0.46
2018-03-20T10:53:21.924Z,0.33
2018-03-20T10:54:21.886Z,0.34
2018-03-20T10:55:21.854Z,0.42
2018-03-20T10:56:21.838Z,0.46
2018-03-20T10:57:21.810Z,0.48
2018-03-20T10:58:21.786Z,0.45
2018-03-20T10:59:21.787Z,0.60
2018-03-20T11:00:21.771Z,0.67
2018-03-20T11:01:21.733Z,0.61
2018-03-20T11:02:21.729Z,0.67
2018-03-20T11:03:21.714Z,0.70
2018-03-20T11:04:21.656Z,0.58
2018-03-20T11:05:21.656Z,0.67
2018-03-20T11:06:21.634Z,0.61
2018-03-20T11:07:21.590Z,0.62
2018-03-20T11:08:21.590Z,0.65
2018-03-20T11:09:21.548Z,0.78
2018-03-20T11:10:21.535Z,0.78
2018-03-20T11:11:21.525Z,0.72
2018-03-20T11:12:21.493Z,0.78
2018-03-20T11:13:21.475Z,0.94
2018-03-20T11:14:21.468Z,1.01
2018-03-20T11:15:21.465Z,0.97
2018-03-20T11:16:21.404Z,0.98
2018-03-20T11:17:21.386Z,1.00
2018-03-20T11:18:21.360Z,1.22
2018-03-20T11:19:21.347Z,1.33
2018-03-20T11:20:21.321Z,1.32
2018-03-20T11:21:21.302Z,1.29
2018-03-20T11:22:21.299Z,1.39
2018-03-20T11:23:21.257Z,1.32
2018-03-20T11:24:21.242Z,1.32
2018-03-20T11:25:21.222Z,1.29
2018-03-20T11:26:21.189Z,1.25
2018-03-20T11:27:21.199Z,1.29
2018-03-20T11:28:21.173Z,1.34
2018-03-20T11:29:21.138Z,1.37
2018-03-20T11:30:21.103Z,1.40
2018-03-20T11:31:21.125Z,1.43
2018-03-20T11:32:21.073Z,1.42
2018-03-20T11:33:21.051Z,1.39
2018-03-20T11:34:21.032Z,1.40
2018-03-20T11:35:21.019Z,1.39
2018-03-20T11:36:20.985Z,1.42
2018-03-20T11:37:20.973Z,1.57
2018-03-20T11:38:20.950Z,1.75
2018-03-20T11:39:20.921Z,1.89
2018-03-20T11:40:20.898Z,1.89
2018-03-20T11:41:20.902Z,1.90
2018-03-20T11:42:20.886Z,1.87
2018-03-20T11:43:20.843Z,1.91
2018-03-20T11:44:20.815Z,2.09
2018-03-20T11:45:20.799Z,2.08
2018-03-20T11:46:20.796Z,2.15
2018-03-20T11:47:20.771Z,1.90
2018-03-20T11:48:20.735Z,1.89
2018-03-20T11:49:20.736Z,1.85
2018-03-20T11:50:20.729Z,1.73
2018-03-20T11:51:20.694Z,1.76
2018-03-20T11:52:20.652Z,1.90
2018-03-20T11:53:20.636Z,1.91
2018-03-20T11:54:20.639Z,2.09
2018-03-20T11:55:20.607Z,2.01
2018-03-20T11:56:20.577Z,2.04
2018-03-20T11:57:20.561Z,2.09
2018-03-20T11:58:20.529Z,2.06
2018-03-20T11:59:20.516Z,2.09
2018-03-20T12:00:20.519Z,2.19
2018-03-20T12:01:20.500Z,2.17
2018-03-20T12:02:20.448Z,2.37
2018-03-20T12:03:20.433Z,2.26
2018-03-20T12:04:20.427Z,2.38
2018-03-20T12:05:20.400Z,2.38
2018-03-20T12:06:20.378Z,2.33
2018-03-20T12:07:20.357Z,2.34
2018-03-20T12:08:20.327Z,2.34
2018-03-20T12:09:20.327Z,2.40
2018-03-20T12:10:20.295Z,2.46
2018-03-20T12:11:20.279Z,2.17
2018-03-20T12:12:20.301Z,2.28
2018-03-20T12:13:20.234Z,2.26
2018-03-20T12:14:20.244Z,2.22
2018-03-20T12:15:20.199Z,2.22
2018-03-20T12:16:20.180Z,2.10
2018-03-20T12:17:20.173Z,1.97
2018-03-20T12:18:20.144Z,2.01
2018-03-20T12:19:20.136Z,1.93
2018-03-20T12:20:20.106Z,1.90
2018-03-20T12:21:20.083Z,1.98
2018-03-20T12:22:20.054Z,1.99
2018-03-20T12:23:20.045Z,1.94
2018-03-20T12:24:20.032Z,2.10
2018-03-20T12:25:20.151Z,2.04
2018-03-20T12:26:19.990Z,2.19
2018-03-20T12:27:19.965Z,2.22
2018-03-20T12:28:19.942Z,2.28
2018-03-20T12:29:19.920Z,2.30
2018-03-20T12:30:19.894Z,2.35
2018-03-20T12:31:19.878Z,2.23
2018-03-20T12:32:19.862Z,2.20
2018-03-20T12:33:19.836Z,2.28
2018-03-20T12:34:19.826Z,2.33
2018-03-20T12:35:19.793Z,2.40
2018-03-20T12:36:19.793Z,2.37
2018-03-20T12:37:19.749Z,2.28
2018-03-20T12:38:19.732Z,2.19
2018-03-20T12:39:19.716Z,2.23
2018-03-20T12:40:19.710Z,2.17
2018-03-20T12:41:19.681Z,2.02
2018-03-20T12:42:19.675Z,2.08
2018-03-20T12:43:19.634Z,2.04
2018-03-20T12:44:19.609Z,2.06
2018-03-20T12:45:19.595Z,2.02
2018-03-20T12:46:19.572Z,2.10
2018-03-20T12:47:19.556Z,2.26
2018-03-20T12:48:19.534Z,2.16
2018-03-20T12:49:19.530Z,2.23
2018-03-20T12:50:19.486Z,2.23
2018-03-20T12:51:19.476Z,2.20
2018-03-20T12:52:19.464Z,2.44
2018-03-20T12:53:19.453Z,2.53
2018-03-20T12:54:19.443Z,2.76
2018-03-20T12:55:19.419Z,2.73
2018-03-20T12:56:19.380Z,2.67
2018-03-20T12:57:19.376Z,2.53
2018-03-20T12:58:19.372Z,2.52
2018-03-20T12:59:19.324Z,2.55
2018-03-20T13:00:19.295Z,2.58
2018-03-20T13:01:19.282Z,2.48